sensor_id;sensor_type;location;lat;lon;timestamp;temperature;humidity
44509;DHT22;30214;52.246;14.408;2023-09-07T00:00:35;14.80;99.90
44509;DHT22;30214;52.246;14.408;2023-09-07T00:03:04;14.80;99.90
44509;DHT22;30214;52.246;14.408;2023-09-07T00:05:31;14.80;99.90
44509;DHT22;30214;52.246;14.408;2023-09-07T00:07:58;14.80;99.90
44509;DHT22;30214;52.246;14.408;2023-09-07T00:10:26;14.90;99.90
44509;DHT22;30214;52.246;14.408;2023-09-07T00:12:53;14.90;99.90
44509;DHT22;30214;52.246;14.408;2023-09-07T00:15:20;14.90;99.90
44509;DHT22;30214;52.246;14.408;2023-09-07T00:17:47;14.70;99.90
44509;DHT22;30214;52.246;14.408;2023-09-07T00:20:16;14.60;99.90
44509;DHT22;30214;52.246;14.408;2023-09-07T00:22:47;14.60;99.90
44509;DHT22;30214;52.246;14.408;2023-09-07T00:25:17;14.60;99.90
44509;DHT22;30214;52.246;14.408;2023-09-07T00:27:46;14.50;99.90
44509;DHT22;30214;52.246;14.408;2023-09-07T00:30:13;14.40;99.90
44509;DHT22;30214;52.246;14.408;2023-09-07T00:32:40;14.40;99.90
44509;DHT22;30214;52.246;14.408;2023-09-07T00:35:09;14.40;99.90
44509;DHT22;30214;52.246;14.408;2023-09-07T00:37:38;14.50;99.90
44509;DHT22;30214;52.246;14.408;2023-09-07T00:40:07;14.50;99.90
44509;DHT22;30214;52.246;14.408;2023-09-07T00:42:35;14.50;99.90
44509;DHT22;30214;52.246;14.408;2023-09-07T00:45:03;14.50;99.90
44509;DHT22;30214;52.246;14.408;2023-09-07T00:47:34;14.50;99.90
44509;DHT22;30214;52.246;14.408;2023-09-07T00:50:02;14.40;99.90
44509;DHT22;30214;52.246;14.408;2023-09-07T00:52:32;14.40;99.90
44509;DHT22;30214;52.246;14.408;2023-09-07T00:55:02;14.40;99.90
44509;DHT22;30214;52.246;14.408;2023-09-07T00:57:30;14.40;99.90
44509;DHT22;30214;52.246;14.408;2023-09-07T00:59:57;14.40;99.90
44509;DHT22;30214;52.246;14.408;2023-09-07T01:02:25;14.30;99.90
44509;DHT22;30214;52.246;14.408;2023-09-07T01:04:52;14.30;99.90
44509;DHT22;30214;52.246;14.408;2023-09-07T01:07:23;14.30;99.90
44509;DHT22;30214;52.246;14.408;2023-09-07T01:09:54;14.20;99.90
44509;DHT22;30214;52.246;14.408;2023-09-07T01:12:24;14.20;99.90
44509;DHT22;30214;52.246;14.408;2023-09-07T01:14:51;14.10;99.90
44509;DHT22;30214;52.246;14.408;2023-09-07T01:17:19;14.00;99.90
44509;DHT22;30214;52.246;14.408;2023-09-07T01:19:48;14.00;99.90
44509;DHT22;30214;52.246;14.408;2023-09-07T01:22:19;13.90;99.90
44509;DHT22;30214;52.246;14.408;2023-09-07T01:24:52;13.90;99.90
44509;DHT22;30214;52.246;14.408;2023-09-07T01:27:20;13.90;99.90
44509;DHT22;30214;52.246;14.408;2023-09-07T01:29:47;13.90;99.90
44509;DHT22;30214;52.246;14.408;2023-09-07T01:32:16;13.90;99.90
44509;DHT22;30214;52.246;14.408;2023-09-07T01:34:43;13.90;99.90
44509;DHT22;30214;52.246;14.408;2023-09-07T01:37:11;13.80;99.90
44509;DHT22;30214;52.246;14.408;2023-09-07T01:39:39;13.90;99.90
44509;DHT22;30214;52.246;14.408;2023-09-07T01:42:07;13.90;99.90
44509;DHT22;30214;52.246;14.408;2023-09-07T01:44:34;13.80;99.90
44509;DHT22;30214;52.246;14.408;2023-09-07T01:47:02;13.80;99.90
44509;DHT22;30214;52.246;14.408;2023-09-07T01:49:29;13.90;99.90
44509;DHT22;30214;52.246;14.408;2023-09-07T01:51:56;13.80;99.90
44509;DHT22;30214;52.246;14.408;2023-09-07T01:54:23;13.80;99.90
44509;DHT22;30214;52.246;14.408;2023-09-07T01:56:54;13.80;99.90
44509;DHT22;30214;52.246;14.408;2023-09-07T01:59:22;13.70;99.90
44509;DHT22;30214;52.246;14.408;2023-09-07T02:01:49;13.70;99.90
44509;DHT22;30214;52.246;14.408;2023-09-07T02:04:18;13.70;99.90
44509;DHT22;30214;52.246;14.408;2023-09-07T02:06:45;13.60;99.90
44509;DHT22;30214;52.246;14.408;2023-09-07T02:09:12;13.60;99.90
44509;DHT22;30214;52.246;14.408;2023-09-07T02:11:39;13.70;99.90
44509;DHT22;30214;52.246;14.408;2023-09-07T02:14:08;13.60;99.90
44509;DHT22;30214;52.246;14.408;2023-09-07T02:16:36;13.60;99.90
44509;DHT22;30214;52.246;14.408;2023-09-07T02:19:04;13.60;99.90
44509;DHT22;30214;52.246;14.408;2023-09-07T02:21:32;13.50;99.90
44509;DHT22;30214;52.246;14.408;2023-09-07T02:23:59;13.50;99.90
44509;DHT22;30214;52.246;14.408;2023-09-07T02:26:26;13.50;99.90
44509;DHT22;30214;52.246;14.408;2023-09-07T02:28:56;13.40;99.90
44509;DHT22;30214;52.246;14.408;2023-09-07T02:31:25;13.30;99.90
44509;DHT22;30214;52.246;14.408;2023-09-07T02:33:52;13.40;99.90
44509;DHT22;30214;52.246;14.408;2023-09-07T02:36:21;13.30;99.90
44509;DHT22;30214;52.246;14.408;2023-09-07T02:38:48;13.10;99.90
44509;DHT22;30214;52.246;14.408;2023-09-07T02:41:15;13.10;99.90
44509;DHT22;30214;52.246;14.408;2023-09-07T02:43:43;13.10;99.90
44509;DHT22;30214;52.246;14.408;2023-09-07T02:46:10;13.20;99.90
44509;DHT22;30214;52.246;14.408;2023-09-07T02:48:44;13.20;99.90
44509;DHT22;30214;52.246;14.408;2023-09-07T02:51:11;13.20;99.90
44509;DHT22;30214;52.246;14.408;2023-09-07T02:53:39;13.20;99.90
44509;DHT22;30214;52.246;14.408;2023-09-07T02:56:06;13.20;99.90
44509;DHT22;30214;52.246;14.408;2023-09-07T02:58:37;13.10;99.90
44509;DHT22;30214;52.246;14.408;2023-09-07T03:01:06;13.10;99.90
44509;DHT22;30214;52.246;14.408;2023-09-07T03:03:34;13.00;99.90
44509;DHT22;30214;52.246;14.408;2023-09-07T03:06:09;13.00;99.90
44509;DHT22;30214;52.246;14.408;2023-09-07T03:08:36;13.00;99.90
44509;DHT22;30214;52.246;14.408;2023-09-07T03:11:03;13.00;99.90
44509;DHT22;30214;52.246;14.408;2023-09-07T03:13:31;13.00;99.90
44509;DHT22;30214;52.246;14.408;2023-09-07T03:15:58;12.90;99.90
44509;DHT22;30214;52.246;14.408;2023-09-07T03:18:25;12.90;99.90
44509;DHT22;30214;52.246;14.408;2023-09-07T03:20:56;12.90;99.90
44509;DHT22;30214;52.246;14.408;2023-09-07T03:23:29;12.90;99.90
44509;DHT22;30214;52.246;14.408;2023-09-07T03:26:00;12.90;99.90
44509;DHT22;30214;52.246;14.408;2023-09-07T03:28:29;12.90;99.90
44509;DHT22;30214;52.246;14.408;2023-09-07T03:30:56;12.80;99.90
44509;DHT22;30214;52.246;14.408;2023-09-07T03:33:26;12.80;99.90
44509;DHT22;30214;52.246;14.408;2023-09-07T03:35:56;12.80;99.90
44509;DHT22;30214;52.246;14.408;2023-09-07T03:38:26;12.90;99.90
44509;DHT22;30214;52.246;14.408;2023-09-07T03:40:53;12.90;99.90
44509;DHT22;30214;52.246;14.408;2023-09-07T03:43:20;12.90;99.90
44509;DHT22;30214;52.246;14.408;2023-09-07T03:45:47;12.80;99.90
44509;DHT22;30214;52.246;14.408;2023-09-07T03:48:15;12.80;99.90
44509;DHT22;30214;52.246;14.408;2023-09-07T03:50:42;12.70;99.90
44509;DHT22;30214;52.246;14.408;2023-09-07T03:53:09;12.70;99.90
44509;DHT22;30214;52.246;14.408;2023-09-07T03:55:48;12.60;99.90
44509;DHT22;30214;52.246;14.408;2023-09-07T03:58:20;12.60;99.90
44509;DHT22;30214;52.246;14.408;2023-09-07T04:00:54;12.60;99.90
44509;DHT22;30214;52.246;14.408;2023-09-07T04:03:27;12.60;99.90
44509;DHT22;30214;52.246;14.408;2023-09-07T04:06:11;12.60;99.90
44509;DHT22;30214;52.246;14.408;2023-09-07T04:08:46;12.70;99.90
44509;DHT22;30214;52.246;14.408;2023-09-07T04:11:14;12.70;99.90
44509;DHT22;30214;52.246;14.408;2023-09-07T04:14:05;12.70;99.90
44509;DHT22;30214;52.246;14.408;2023-09-07T04:16:38;13.10;99.90
44509;DHT22;30214;52.246;14.408;2023-09-07T04:19:59;13.10;99.90
44509;DHT22;30214;52.246;14.408;2023-09-07T04:26:28;12.90;99.90
44509;DHT22;30214;52.246;14.408;2023-09-07T04:28:56;12.80;99.90
44509;DHT22;30214;52.246;14.408;2023-09-07T04:31:23;12.70;99.90
44509;DHT22;30214;52.246;14.408;2023-09-07T04:33:59;12.80;99.90
44509;DHT22;30214;52.246;14.408;2023-09-07T04:36:49;12.80;99.90
44509;DHT22;30214;52.246;14.408;2023-09-07T04:39:18;12.80;99.90
44509;DHT22;30214;52.246;14.408;2023-09-07T04:41:50;12.80;99.90
44509;DHT22;30214;52.246;14.408;2023-09-07T04:44:24;12.70;99.90
44509;DHT22;30214;52.246;14.408;2023-09-07T04:46:54;12.70;99.90
44509;DHT22;30214;52.246;14.408;2023-09-07T04:49:24;12.80;99.90
44509;DHT22;30214;52.246;14.408;2023-09-07T04:51:53;13.00;99.90
44509;DHT22;30214;52.246;14.408;2023-09-07T04:54:28;13.10;99.90
44509;DHT22;30214;52.246;14.408;2023-09-07T04:57:10;13.20;99.90
44509;DHT22;30214;52.246;14.408;2023-09-07T04:59:38;13.30;99.90
44509;DHT22;30214;52.246;14.408;2023-09-07T05:02:10;13.50;99.90
44509;DHT22;30214;52.246;14.408;2023-09-07T05:04:41;13.80;99.90
44509;DHT22;30214;52.246;14.408;2023-09-07T05:07:11;14.10;99.90
44509;DHT22;30214;52.246;14.408;2023-09-07T05:09:46;14.30;99.90
44509;DHT22;30214;52.246;14.408;2023-09-07T05:12:33;14.40;99.90
44509;DHT22;30214;52.246;14.408;2023-09-07T05:15:03;14.50;99.90
44509;DHT22;30214;52.246;14.408;2023-09-07T05:17:32;14.50;99.90
44509;DHT22;30214;52.246;14.408;2023-09-07T05:19:59;14.60;99.90
44509;DHT22;30214;52.246;14.408;2023-09-07T05:22:26;14.70;99.90
44509;DHT22;30214;52.246;14.408;2023-09-07T05:24:54;14.90;99.90
44509;DHT22;30214;52.246;14.408;2023-09-07T05:27:21;15.00;99.90
44509;DHT22;30214;52.246;14.408;2023-09-07T05:29:49;15.10;99.90
44509;DHT22;30214;52.246;14.408;2023-09-07T05:32:21;15.30;99.90
44509;DHT22;30214;52.246;14.408;2023-09-07T05:34:51;15.50;99.90
44509;DHT22;30214;52.246;14.408;2023-09-07T05:37:20;15.70;99.90
44509;DHT22;30214;52.246;14.408;2023-09-07T05:39:47;16.00;99.90
44509;DHT22;30214;52.246;14.408;2023-09-07T05:42:15;16.30;99.90
44509;DHT22;30214;52.246;14.408;2023-09-07T05:44:43;16.60;99.90
44509;DHT22;30214;52.246;14.408;2023-09-07T05:47:11;16.80;99.90
44509;DHT22;30214;52.246;14.408;2023-09-07T05:49:39;16.80;99.90
44509;DHT22;30214;52.246;14.408;2023-09-07T05:52:09;17.00;99.90
44509;DHT22;30214;52.246;14.408;2023-09-07T05:54:36;17.30;99.90
44509;DHT22;30214;52.246;14.408;2023-09-07T05:57:13;17.40;99.90
44509;DHT22;30214;52.246;14.408;2023-09-07T05:59:42;17.50;99.90
44509;DHT22;30214;52.246;14.408;2023-09-07T06:02:12;17.60;99.90
44509;DHT22;30214;52.246;14.408;2023-09-07T06:04:40;17.50;99.90
44509;DHT22;30214;52.246;14.408;2023-09-07T06:07:07;17.70;99.90
44509;DHT22;30214;52.246;14.408;2023-09-07T06:09:40;17.70;99.90
44509;DHT22;30214;52.246;14.408;2023-09-07T06:12:11;17.60;99.90
44509;DHT22;30214;52.246;14.408;2023-09-07T06:14:44;17.70;99.90
44509;DHT22;30214;52.246;14.408;2023-09-07T06:17:14;17.80;99.90
44509;DHT22;30214;52.246;14.408;2023-09-07T06:19:41;17.90;99.90
44509;DHT22;30214;52.246;14.408;2023-09-07T06:22:09;18.00;99.90
44509;DHT22;30214;52.246;14.408;2023-09-07T06:24:42;17.90;99.90
44509;DHT22;30214;52.246;14.408;2023-09-07T06:27:22;18.10;99.90
44509;DHT22;30214;52.246;14.408;2023-09-07T06:30:00;18.20;99.90
44509;DHT22;30214;52.246;14.408;2023-09-07T06:32:44;18.10;99.90
44509;DHT22;30214;52.246;14.408;2023-09-07T06:35:18;18.20;99.90
44509;DHT22;30214;52.246;14.408;2023-09-07T06:37:55;18.40;99.90
44509;DHT22;30214;52.246;14.408;2023-09-07T06:48:06;18.50;99.90
44509;DHT22;30214;52.246;14.408;2023-09-07T06:50:46;18.80;99.90
44509;DHT22;30214;52.246;14.408;2023-09-07T06:53:14;18.70;99.90
44509;DHT22;30214;52.246;14.408;2023-09-07T06:55:46;18.80;99.90
44509;DHT22;30214;52.246;14.408;2023-09-07T06:58:18;18.70;99.90
44509;DHT22;30214;52.246;14.408;2023-09-07T07:08:32;19.40;99.90
44509;DHT22;30214;52.246;14.408;2023-09-07T07:18:52;19.70;99.90
44509;DHT22;30214;52.246;14.408;2023-09-07T07:21:26;19.80;99.90
44509;DHT22;30214;52.246;14.408;2023-09-07T07:24:01;20.00;99.90
44509;DHT22;30214;52.246;14.408;2023-09-07T07:26:33;20.20;99.90
44509;DHT22;30214;52.246;14.408;2023-09-07T07:29:14;20.20;99.90
44509;DHT22;30214;52.246;14.408;2023-09-07T07:39:28;20.50;99.90
44509;DHT22;30214;52.246;14.408;2023-09-07T07:57:03;21.80;99.90
44509;DHT22;30214;52.246;14.408;2023-09-07T08:00:53;21.90;99.90
44509;DHT22;30214;52.246;14.408;2023-09-07T08:03:27;21.90;99.90
44509;DHT22;30214;52.246;14.408;2023-09-07T08:13:24;22.40;99.90
44509;DHT22;30214;52.246;14.408;2023-09-07T08:18:59;22.50;99.90
44509;DHT22;30214;52.246;14.408;2023-09-07T08:41:01;23.30;99.90
44509;DHT22;30214;52.246;14.408;2023-09-07T08:43:45;23.50;99.10
44509;DHT22;30214;52.246;14.408;2023-09-07T08:57:54;24.20;98.90
44509;DHT22;30214;52.246;14.408;2023-09-07T09:00:30;24.40;98.70
44509;DHT22;30214;52.246;14.408;2023-09-07T09:10:17;24.50;97.80
44509;DHT22;30214;52.246;14.408;2023-09-07T09:12:45;24.70;95.70
44509;DHT22;30214;52.246;14.408;2023-09-07T09:15:16;24.60;95.60
44509;DHT22;30214;52.246;14.408;2023-09-07T09:17:49;24.90;96.70
44509;DHT22;30214;52.246;14.408;2023-09-07T09:20:26;25.10;96.30
44509;DHT22;30214;52.246;14.408;2023-09-07T09:30:26;25.30;93.80
44509;DHT22;30214;52.246;14.408;2023-09-07T09:32:56;25.40;94.40
44509;DHT22;30214;52.246;14.408;2023-09-07T09:35:29;25.30;95.00
44509;DHT22;30214;52.246;14.408;2023-09-07T09:38:27;25.30;95.20
44509;DHT22;30214;52.246;14.408;2023-09-07T09:41:00;25.50;93.80
44509;DHT22;30214;52.246;14.408;2023-09-07T09:43:36;25.60;93.30
44509;DHT22;30214;52.246;14.408;2023-09-07T09:46:12;25.40;93.20
44509;DHT22;30214;52.246;14.408;2023-09-07T09:52:25;25.70;93.00
44509;DHT22;30214;52.246;14.408;2023-09-07T09:54:56;25.90;91.10
44509;DHT22;30214;52.246;14.408;2023-09-07T09:57:28;25.90;89.60
44509;DHT22;30214;52.246;14.408;2023-09-07T10:00:05;25.90;89.30
44509;DHT22;30214;52.246;14.408;2023-09-07T10:02:59;25.90;89.00
44509;DHT22;30214;52.246;14.408;2023-09-07T10:05:30;26.00;89.50
44509;DHT22;30214;52.246;14.408;2023-09-07T10:08:09;26.10;88.00
44509;DHT22;30214;52.246;14.408;2023-09-07T10:18:33;26.30;83.40
44509;DHT22;30214;52.246;14.408;2023-09-07T10:21:02;26.10;82.80
44509;DHT22;30214;52.246;14.408;2023-09-07T10:23:38;26.00;84.60
44509;DHT22;30214;52.246;14.408;2023-09-07T10:26:16;26.00;84.20
44509;DHT22;30214;52.246;14.408;2023-09-07T10:33:24;26.40;86.60
44509;DHT22;30214;52.246;14.408;2023-09-07T10:35:55;26.60;84.60
44509;DHT22;30214;52.246;14.408;2023-09-07T10:38:26;26.60;81.70
44509;DHT22;30214;52.246;14.408;2023-09-07T10:41:01;26.50;79.90
44509;DHT22;30214;52.246;14.408;2023-09-07T10:43:33;26.40;84.60
44509;DHT22;30214;52.246;14.408;2023-09-07T10:46:07;26.50;81.50
44509;DHT22;30214;52.246;14.408;2023-09-07T10:48:48;26.40;80.70
44509;DHT22;30214;52.246;14.408;2023-09-07T10:51:51;26.40;84.90
44509;DHT22;30214;52.246;14.408;2023-09-07T10:54:38;26.50;81.90
44509;DHT22;30214;52.246;14.408;2023-09-07T10:57:13;26.50;79.80
44509;DHT22;30214;52.246;14.408;2023-09-07T10:59:44;26.70;81.10
44509;DHT22;30214;52.246;14.408;2023-09-07T11:02:25;26.70;79.80
44509;DHT22;30214;52.246;14.408;2023-09-07T11:04:57;26.60;80.60
44509;DHT22;30214;52.246;14.408;2023-09-07T11:07:32;26.50;82.60
44509;DHT22;30214;52.246;14.408;2023-09-07T11:10:11;26.70;81.10
44509;DHT22;30214;52.246;14.408;2023-09-07T11:13:12;26.70;81.70
44509;DHT22;30214;52.246;14.408;2023-09-07T11:19:42;26.90;78.50
44509;DHT22;30214;52.246;14.408;2023-09-07T11:22:20;27.10;81.60
44509;DHT22;30214;52.246;14.408;2023-09-07T11:24:59;27.20;80.30
44509;DHT22;30214;52.246;14.408;2023-09-07T11:27:57;27.50;83.50
44509;DHT22;30214;52.246;14.408;2023-09-07T11:31:08;27.40;76.40
44509;DHT22;30214;52.246;14.408;2023-09-07T11:33:38;27.00;75.10
44509;DHT22;30214;52.246;14.408;2023-09-07T11:43:35;27.00;75.80
44509;DHT22;30214;52.246;14.408;2023-09-07T11:46:20;26.90;79.20
44509;DHT22;30214;52.246;14.408;2023-09-07T11:49:09;27.00;78.40
44509;DHT22;30214;52.246;14.408;2023-09-07T11:51:36;27.10;76.50
44509;DHT22;30214;52.246;14.408;2023-09-07T11:54:09;27.10;76.70
44509;DHT22;30214;52.246;14.408;2023-09-07T12:00:10;27.20;77.50
44509;DHT22;30214;52.246;14.408;2023-09-07T12:02:44;27.10;76.80
44509;DHT22;30214;52.246;14.408;2023-09-07T12:05:17;27.00;79.50
44509;DHT22;30214;52.246;14.408;2023-09-07T12:17:58;27.20;77.70
44509;DHT22;30214;52.246;14.408;2023-09-07T12:20:38;27.20;78.90
44509;DHT22;30214;52.246;14.408;2023-09-07T12:23:12;27.30;79.70
44509;DHT22;30214;52.246;14.408;2023-09-07T12:25:45;27.20;78.00
44509;DHT22;30214;52.246;14.408;2023-09-07T12:28:24;27.10;80.90
44509;DHT22;30214;52.246;14.408;2023-09-07T12:31:13;27.10;79.40
44509;DHT22;30214;52.246;14.408;2023-09-07T12:33:46;27.10;76.00
44509;DHT22;30214;52.246;14.408;2023-09-07T12:36:17;27.30;75.70
44509;DHT22;30214;52.246;14.408;2023-09-07T12:38:58;27.30;76.20
44509;DHT22;30214;52.246;14.408;2023-09-07T12:42:28;27.30;77.30
44509;DHT22;30214;52.246;14.408;2023-09-07T12:52:45;27.30;73.10
44509;DHT22;30214;52.246;14.408;2023-09-07T12:55:16;27.30;69.60
44509;DHT22;30214;52.246;14.408;2023-09-07T12:58:01;27.40;74.60
44509;DHT22;30214;52.246;14.408;2023-09-07T13:00:33;27.40;66.80
44509;DHT22;30214;52.246;14.408;2023-09-07T13:03:18;27.30;69.50
44509;DHT22;30214;52.246;14.408;2023-09-07T13:05:54;27.40;70.20
44509;DHT22;30214;52.246;14.408;2023-09-07T13:08:30;27.40;73.50
44509;DHT22;30214;52.246;14.408;2023-09-07T13:11:03;27.40;71.90
44509;DHT22;30214;52.246;14.408;2023-09-07T13:13:59;27.30;70.00
44509;DHT22;30214;52.246;14.408;2023-09-07T13:16:32;27.40;73.00
44509;DHT22;30214;52.246;14.408;2023-09-07T13:19:05;27.30;73.70
44509;DHT22;30214;52.246;14.408;2023-09-07T13:22:01;27.30;74.20
44509;DHT22;30214;52.246;14.408;2023-09-07T13:24:45;27.30;72.70
44509;DHT22;30214;52.246;14.408;2023-09-07T13:27:15;27.30;72.10
44509;DHT22;30214;52.246;14.408;2023-09-07T13:29:57;27.20;72.10
44509;DHT22;30214;52.246;14.408;2023-09-07T13:32:32;27.30;73.10
44509;DHT22;30214;52.246;14.408;2023-09-07T13:42:41;27.30;72.40
44509;DHT22;30214;52.246;14.408;2023-09-07T13:45:15;27.20;70.90
44509;DHT22;30214;52.246;14.408;2023-09-07T13:47:55;27.20;75.30
44509;DHT22;30214;52.246;14.408;2023-09-07T13:50:32;27.20;74.10
44509;DHT22;30214;52.246;14.408;2023-09-07T13:53:02;27.30;74.60
44509;DHT22;30214;52.246;14.408;2023-09-07T13:55:34;27.30;74.70
44509;DHT22;30214;52.246;14.408;2023-09-07T13:58:16;27.30;72.80
44509;DHT22;30214;52.246;14.408;2023-09-07T14:00:43;27.30;72.60
44509;DHT22;30214;52.246;14.408;2023-09-07T14:03:14;27.20;75.30
44509;DHT22;30214;52.246;14.408;2023-09-07T14:05:45;27.20;73.30
44509;DHT22;30214;52.246;14.408;2023-09-07T14:08:25;27.20;72.20
44509;DHT22;30214;52.246;14.408;2023-09-07T14:11:02;27.20;73.10
44509;DHT22;30214;52.246;14.408;2023-09-07T14:13:41;27.20;73.60
44509;DHT22;30214;52.246;14.408;2023-09-07T14:16:15;27.20;71.90
44509;DHT22;30214;52.246;14.408;2023-09-07T14:18:46;27.20;73.00
44509;DHT22;30214;52.246;14.408;2023-09-07T14:21:15;27.20;73.20
44509;DHT22;30214;52.246;14.408;2023-09-07T14:23:44;27.20;74.30
44509;DHT22;30214;52.246;14.408;2023-09-07T14:26:15;27.20;73.90
44509;DHT22;30214;52.246;14.408;2023-09-07T14:28:44;27.20;72.60
44509;DHT22;30214;52.246;14.408;2023-09-07T14:31:11;27.10;72.90
44509;DHT22;30214;52.246;14.408;2023-09-07T14:33:38;27.10;72.30
44509;DHT22;30214;52.246;14.408;2023-09-07T14:36:07;27.20;74.20
44509;DHT22;30214;52.246;14.408;2023-09-07T14:38:35;27.10;71.70
44509;DHT22;30214;52.246;14.408;2023-09-07T14:41:22;27.20;76.10
44509;DHT22;30214;52.246;14.408;2023-09-07T14:43:51;27.10;74.50
44509;DHT22;30214;52.246;14.408;2023-09-07T14:46:20;27.10;75.40
44509;DHT22;30214;52.246;14.408;2023-09-07T14:48:54;27.10;72.80
44509;DHT22;30214;52.246;14.408;2023-09-07T14:51:26;27.10;73.60
44509;DHT22;30214;52.246;14.408;2023-09-07T14:53:54;27.00;73.90
44509;DHT22;30214;52.246;14.408;2023-09-07T14:56:22;27.00;76.80
44509;DHT22;30214;52.246;14.408;2023-09-07T14:58:54;27.00;75.10
44509;DHT22;30214;52.246;14.408;2023-09-07T15:01:22;27.00;73.70
44509;DHT22;30214;52.246;14.408;2023-09-07T15:03:49;27.10;75.00
44509;DHT22;30214;52.246;14.408;2023-09-07T15:06:25;26.90;73.00
44509;DHT22;30214;52.246;14.408;2023-09-07T15:08:58;26.90;73.30
44509;DHT22;30214;52.246;14.408;2023-09-07T15:11:26;26.90;75.10
44509;DHT22;30214;52.246;14.408;2023-09-07T15:13:55;26.90;73.90
44509;DHT22;30214;52.246;14.408;2023-09-07T15:16:23;26.90;74.00
44509;DHT22;30214;52.246;14.408;2023-09-07T15:18:51;26.80;71.60
44509;DHT22;30214;52.246;14.408;2023-09-07T15:21:20;26.80;72.00
44509;DHT22;30214;52.246;14.408;2023-09-07T15:23:49;26.80;73.50
44509;DHT22;30214;52.246;14.408;2023-09-07T15:26:18;26.70;73.10
44509;DHT22;30214;52.246;14.408;2023-09-07T15:28:48;26.80;74.80
44509;DHT22;30214;52.246;14.408;2023-09-07T15:31:17;26.60;74.00
44509;DHT22;30214;52.246;14.408;2023-09-07T15:33:44;26.70;73.70
44509;DHT22;30214;52.246;14.408;2023-09-07T15:36:16;26.70;72.30
44509;DHT22;30214;52.246;14.408;2023-09-07T15:38:44;26.60;72.80
44509;DHT22;30214;52.246;14.408;2023-09-07T15:41:13;26.60;73.50
44509;DHT22;30214;52.246;14.408;2023-09-07T15:43:41;26.60;73.40
44509;DHT22;30214;52.246;14.408;2023-09-07T15:46:08;26.60;71.90
44509;DHT22;30214;52.246;14.408;2023-09-07T15:48:41;26.50;73.50
44509;DHT22;30214;52.246;14.408;2023-09-07T15:51:09;26.50;74.00
44509;DHT22;30214;52.246;14.408;2023-09-07T15:53:37;26.50;73.10
44509;DHT22;30214;52.246;14.408;2023-09-07T15:56:09;26.40;74.20
44509;DHT22;30214;52.246;14.408;2023-09-07T15:58:38;26.40;73.90
44509;DHT22;30214;52.246;14.408;2023-09-07T16:01:05;26.30;74.60
44509;DHT22;30214;52.246;14.408;2023-09-07T16:03:32;26.30;72.80
44509;DHT22;30214;52.246;14.408;2023-09-07T16:06:01;26.30;74.00
44509;DHT22;30214;52.246;14.408;2023-09-07T16:08:29;26.20;73.80
44509;DHT22;30214;52.246;14.408;2023-09-07T16:10:57;26.20;74.60
44509;DHT22;30214;52.246;14.408;2023-09-07T16:13:26;26.20;74.80
44509;DHT22;30214;52.246;14.408;2023-09-07T16:15:53;26.10;75.60
44509;DHT22;30214;52.246;14.408;2023-09-07T16:18:20;26.10;76.30
44509;DHT22;30214;52.246;14.408;2023-09-07T16:20:47;26.10;76.00
44509;DHT22;30214;52.246;14.408;2023-09-07T16:23:17;26.00;75.80
44509;DHT22;30214;52.246;14.408;2023-09-07T16:25:46;26.00;76.00
44509;DHT22;30214;52.246;14.408;2023-09-07T16:28:23;25.90;76.10
44509;DHT22;30214;52.246;14.408;2023-09-07T17:01:57;25.00;78.60
44509;DHT22;30214;52.246;14.408;2023-09-07T17:04:34;24.90;78.70
44509;DHT22;30214;52.246;14.408;2023-09-07T17:07:39;24.90;79.40
44509;DHT22;30214;52.246;14.408;2023-09-07T17:11:13;24.80;78.40
44509;DHT22;30214;52.246;14.408;2023-09-07T17:25:33;24.50;81.10
44509;DHT22;30214;52.246;14.408;2023-09-07T18:26:17;20.80;99.90
44509;DHT22;30214;52.246;14.408;2023-09-07T18:41:02;20.50;99.90
44509;DHT22;30214;52.246;14.408;2023-09-07T18:43:33;20.20;99.90
44509;DHT22;30214;52.246;14.408;2023-09-07T18:50:06;20.10;99.90
44509;DHT22;30214;52.246;14.408;2023-09-07T19:00:42;19.90;99.90
44509;DHT22;30214;52.246;14.408;2023-09-07T19:03:23;19.90;99.90
44509;DHT22;30214;52.246;14.408;2023-09-07T19:24:05;19.60;99.90
44509;DHT22;30214;52.246;14.408;2023-09-07T19:26:49;19.50;99.90
44509;DHT22;30214;52.246;14.408;2023-09-07T19:29:17;19.40;99.90
44509;DHT22;30214;52.246;14.408;2023-09-07T19:31:44;19.30;99.90
44509;DHT22;30214;52.246;14.408;2023-09-07T19:34:12;19.20;99.90
44509;DHT22;30214;52.246;14.408;2023-09-07T19:36:40;18.90;99.90
44509;DHT22;30214;52.246;14.408;2023-09-07T19:39:13;18.60;99.90
44509;DHT22;30214;52.246;14.408;2023-09-07T19:41:51;18.50;99.90
44509;DHT22;30214;52.246;14.408;2023-09-07T19:44:18;18.40;99.90
44509;DHT22;30214;52.246;14.408;2023-09-07T19:46:52;18.40;99.90
44509;DHT22;30214;52.246;14.408;2023-09-07T19:49:31;18.40;99.90
44509;DHT22;30214;52.246;14.408;2023-09-07T19:52:02;18.30;99.90
44509;DHT22;30214;52.246;14.408;2023-09-07T19:54:38;18.30;99.90
44509;DHT22;30214;52.246;14.408;2023-09-07T19:57:08;18.30;99.90
44509;DHT22;30214;52.246;14.408;2023-09-07T19:59:49;18.30;99.90
44509;DHT22;30214;52.246;14.408;2023-09-07T20:02:19;18.30;99.90
44509;DHT22;30214;52.246;14.408;2023-09-07T20:05:01;18.30;99.90
44509;DHT22;30214;52.246;14.408;2023-09-07T20:07:34;18.30;99.90
44509;DHT22;30214;52.246;14.408;2023-09-07T20:10:09;18.20;99.90
44509;DHT22;30214;52.246;14.408;2023-09-07T20:12:48;18.20;99.90
44509;DHT22;30214;52.246;14.408;2023-09-07T20:15:16;18.00;99.90
44509;DHT22;30214;52.246;14.408;2023-09-07T20:17:46;17.90;99.90
44509;DHT22;30214;52.246;14.408;2023-09-07T20:20:15;17.80;99.90
44509;DHT22;30214;52.246;14.408;2023-09-07T20:22:48;17.80;99.90
44509;DHT22;30214;52.246;14.408;2023-09-07T20:25:26;17.90;99.90
44509;DHT22;30214;52.246;14.408;2023-09-07T20:27:54;17.90;99.90
44509;DHT22;30214;52.246;14.408;2023-09-07T20:30:26;17.80;99.90
44509;DHT22;30214;52.246;14.408;2023-09-07T20:32:53;17.70;99.90
44509;DHT22;30214;52.246;14.408;2023-09-07T20:35:24;17.60;99.90
44509;DHT22;30214;52.246;14.408;2023-09-07T20:38:16;17.60;99.90
44509;DHT22;30214;52.246;14.408;2023-09-07T20:41:00;17.50;99.90
44509;DHT22;30214;52.246;14.408;2023-09-07T20:43:35;17.40;99.90
44509;DHT22;30214;52.246;14.408;2023-09-07T20:46:11;17.30;99.90
44509;DHT22;30214;52.246;14.408;2023-09-07T20:48:53;17.30;99.90
44509;DHT22;30214;52.246;14.408;2023-09-07T20:51:24;17.30;99.90
44509;DHT22;30214;52.246;14.408;2023-09-07T20:53:51;17.30;99.90
44509;DHT22;30214;52.246;14.408;2023-09-07T21:00:11;17.40;99.90